Time;durP1;ratioP1;P1;durP2;ratioP2;P2;SDS_P1;SDS_P2;PMS_P1;PMS_P2;Temp;Humidity;BMP_temperature;BMP_pressure;BME280_temperature;BME280_humidity;BME280_pressure;Samples;Min_cycle;Max_cycle;Signal;HPM_P1;HPM_P2
2021/05/10 00:01:36;;;;;;;2.25;1.10;;;;;;;19.76;65.43;99956.13;5012246;28;20040;-80
2021/05/10 00:04:03;;;;;;;0.93;0.70;;;;;;;19.77;65.46;99957.88;5011813;28;20056;-80
2021/05/10 00:06:30;;;;;;;1.40;0.82;;;;;;;19.80;65.14;99957.63;5012050;28;20500;-79
2021/05/10 00:08:57;;;;;;;2.92;1.00;;;;;;;19.75;65.64;99959.78;5011721;28;20037;-79
2021/05/10 00:11:25;;;;;;;10.13;1.65;;;;;;;19.81;65.31;99959.34;5012636;28;20030;-79
2021/05/10 00:13:53;;;;;;;2.33;0.70;;;;;;;19.79;65.31;99961.28;4997471;28;20041;-80
2021/05/10 00:16:20;;;;;;;4.40;1.17;;;;;;;19.84;64.87;99953.78;5012360;28;20100;-80
2021/05/10 00:18:47;;;;;;;1.63;0.80;;;;;;;19.83;64.88;99957.44;5011926;28;20396;-79
2021/05/10 00:21:13;;;;;;;16.20;2.30;;;;;;;19.81;65.11;99959.34;5011762;28;20421;-81
2021/05/10 00:26:19;;;;;;;3.45;1.00;;;;;;;19.81;64.99;99964.72;5002007;28;20046;-82
2021/05/10 00:28:46;;;;;;;2.17;1.92;;;;;;;19.77;64.97;99974.00;4998537;28;20025;-82
2021/05/10 00:31:12;;;;;;;5.10;1.73;;;;;;;19.69;65.31;99961.97;5005101;28;20049;-83
2021/05/10 00:33:39;;;;;;;1.83;1.52;;;;;;;19.67;65.42;99968.41;5006364;28;20030;-83
2021/05/10 00:36:05;;;;;;;2.80;1.67;;;;;;;19.60;65.76;99962.63;5000934;28;20010;-83
2021/05/10 00:38:33;;;;;;;2.42;1.80;;;;;;;19.58;65.42;99972.63;5017678;28;20026;-83
2021/05/10 00:40:59;;;;;;;4.18;1.52;;;;;;;19.61;65.33;99966.16;5017963;28;20154;-83
2021/05/10 00:43:26;;;;;;;3.00;1.55;;;;;;;19.53;65.67;99972.94;5023199;28;20026;-84
2021/05/10 00:45:52;;;;;;;4.70;2.00;;;;;;;19.54;65.98;99968.44;5018876;28;20035;-83
2021/05/10 00:48:19;;;;;;;3.47;2.15;;;;;;;19.61;65.39;99961.66;5022197;28;20057;-83
2021/05/10 00:50:46;;;;;;;7.35;2.03;;;;;;;19.55;65.46;99962.09;5018206;28;20031;-84
2021/05/10 00:53:12;;;;;;;3.22;1.98;;;;;;;19.54;65.33;99961.25;5022822;28;20030;-83
2021/05/10 00:55:39;;;;;;;2.78;1.80;;;;;;;19.48;65.83;99963.53;5014129;28;20477;-84
2021/05/10 00:58:05;;;;;;;2.08;1.38;;;;;;;19.48;65.42;99958.16;5012161;28;20033;-83
2021/05/10 01:00:36;;;;;;;2.28;1.60;;;;;;;19.46;65.86;99960.06;5016354;28;20374;-85
2021/05/10 01:03:02;;;;;;;4.68;1.65;;;;;;;19.43;65.73;99962.97;5012390;28;20037;-84
2021/05/10 01:05:29;;;;;;;1.95;1.58;;;;;;;19.32;66.30;99953.84;5006203;28;20117;-83
2021/05/10 01:07:56;;;;;;;2.72;2.40;;;;;;;19.38;65.84;99958.78;5007523;28;20035;-83
2021/05/10 01:10:25;;;;;;;2.53;1.52;;;;;;;19.41;65.84;99946.97;5013118;28;20030;-84
2021/05/10 01:12:52;;;;;;;2.50;2.28;;;;;;;19.33;65.91;99950.19;5003285;28;20030;-82
2021/05/10 01:15:21;;;;;;;2.30;1.63;;;;;;;19.35;65.84;99942.03;5008387;28;20365;-83
2021/05/10 01:17:51;;;;;;;6.55;2.30;;;;;;;19.36;65.74;99938.38;5004514;28;20037;-83
2021/05/10 01:20:18;;;;;;;2.55;1.52;;;;;;;19.29;66.03;99929.91;4999200;28;20081;-83
2021/05/10 01:22:47;;;;;;;3.22;1.80;;;;;;;19.28;66.09;99928.19;5003630;28;20041;-83
2021/05/10 01:25:19;;;;;;;4.50;1.90;;;;;;;19.23;66.29;99923.13;5003364;28;20032;-83
2021/05/10 01:27:46;;;;;;;;;;;;;;;19.42;66.02;99924.50;5006357;28;20018;-83
2021/05/10 01:30:18;;;;;;;3.33;1.65;;;;;;;19.34;65.99;99913.44;5003365;28;19913;-83
2021/05/10 01:32:45;;;;;;;4.65;1.95;;;;;;;19.30;65.79;99907.47;4998738;28;20034;-83
2021/05/10 01:35:14;;;;;;;5.53;1.75;;;;;;;19.37;65.64;99905.19;5002076;28;20033;-83
2021/05/10 01:37:40;;;;;;;5.15;2.25;;;;;;;19.28;66.09;99904.00;4998609;28;20121;-83
2021/05/10 01:40:10;;;;;;;2.67;2.03;;;;;;;19.33;65.88;99901.84;5001436;28;20026;-83
2021/05/10 01:42:37;;;;;;;6.47;2.08;;;;;;;19.35;65.83;99904.41;4997277;28;20034;-83
2021/05/10 01:45:06;;;;;;;4.47;2.05;;;;;;;19.36;65.57;99896.25;5009381;28;20030;-83
2021/05/10 01:47:32;;;;;;;3.97;1.92;;;;;;;19.31;65.60;99887.66;5006058;28;20221;-83
2021/05/10 01:49:59;;;;;;;5.68;2.30;;;;;;;19.30;65.64;99894.03;5000781;28;20029;-83
2021/05/10 01:52:25;;;;;;;3.63;1.77;;;;;;;19.32;65.59;99894.75;5004227;28;20040;-83
2021/05/10 01:54:56;;;;;;;6.20;1.52;;;;;;;19.30;65.54;99883.28;5005440;28;20123;-83
2021/05/10 01:57:22;;;;;;;4.22;2.40;;;;;;;19.34;65.44;99892.84;5005647;28;20049;-83
2021/05/10 01:59:49;;;;;;;3.58;2.20;;;;;;;19.29;65.43;99868.13;5004813;28;20460;-83
2021/05/10 02:02:16;;;;;;;6.13;2.00;;;;;;;19.32;65.29;99867.06;5003717;28;20026;-83
2021/05/10 02:05:11;;;;;;;6.05;2.38;;;;;;;19.33;65.34;99861.56;5001288;28;20034;-83
2021/05/10 02:07:41;;;;;;;1.92;1.65;;;;;;;19.25;65.30;99855.88;5001874;28;20094;-83
2021/05/10 02:10:12;;;;;;;3.38;2.00;;;;;;;19.27;65.25;99862.00;5004353;28;20065;-83
2021/05/10 02:12:39;;;;;;;2.22;1.70;;;;;;;19.26;65.29;99851.38;4998061;28;20130;-83
2021/05/10 02:15:10;;;;;;;4.93;3.08;;;;;;;19.22;65.32;99835.47;4999280;28;20014;-83
2021/05/10 02:17:38;;;;;;;1.98;1.48;;;;;;;19.22;65.16;99826.59;4980324;28;20069;-83
2021/05/10 02:20:06;;;;;;;1.98;1.45;;;;;;;19.27;65.05;99827.09;4996487;28;20381;-83
2021/05/10 02:22:33;;;;;;;4.50;2.05;;;;;;;19.28;64.95;99820.75;5000579;28;20088;-82
2021/05/10 02:24:59;;;;;;;6.75;2.05;;;;;;;19.23;64.91;99820.25;5000660;28;20034;-83
2021/05/10 02:27:26;;;;;;;2.83;1.83;;;;;;;19.23;64.92;99825.63;5002929;28;20037;-83
2021/05/10 02:29:53;;;;;;;2.15;1.85;;;;;;;19.17;65.19;99826.06;5003714;28;20034;-83
2021/05/10 02:32:22;;;;;;;5.35;2.55;;;;;;;19.17;64.95;99818.84;4997414;28;20066;-82
2021/05/10 02:34:48;;;;;;;2.63;0.98;;;;;;;19.11;65.03;99813.91;4993669;28;20042;-81
2021/05/10 02:37:16;;;;;;;2.33;1.95;;;;;;;19.12;65.00;99817.47;4997742;28;20404;-82
2021/05/10 02:39:43;;;;;;;8.68;3.08;;;;;;;19.11;64.92;99815.75;4997355;28;20027;-83
2021/05/10 02:42:09;;;;;;;5.65;2.75;;;;;;;19.04;64.94;99810.84;5002507;28;20123;-82
2021/05/10 02:44:36;;;;;;;2.45;1.75;;;;;;;19.07;64.83;99799.84;5002626;28;20038;-84
2021/05/10 02:47:02;;;;;;;3.38;2.92;;;;;;;19.01;64.74;99811.03;4999472;28;20018;-82
2021/05/10 02:49:29;;;;;;;2.47;1.45;;;;;;;18.95;64.99;99818.69;5001077;28;20129;-83
2021/05/10 02:51:55;;;;;;;6.13;2.88;;;;;;;18.94;65.10;99814.28;5003202;28;20057;-83
2021/05/10 02:54:22;;;;;;;2.50;2.00;;;;;;;18.92;65.16;99803.66;5005001;28;20037;-83
2021/05/10 02:56:48;;;;;;;5.93;3.42;;;;;;;18.89;65.38;99811.88;4988435;28;20025;-83
2021/05/10 02:59:15;;;;;;;5.15;3.47;;;;;;;18.88;65.49;99810.19;4997813;28;20034;-83
2021/05/10 03:01:44;;;;;;;2.72;2.50;;;;;;;18.94;65.49;99809.78;4998754;28;20034;-83
2021/05/10 03:04:11;;;;;;;4.10;3.15;;;;;;;18.99;65.46;99804.94;4981082;28;20027;-83
2021/05/10 03:06:37;;;;;;;6.57;4.35;;;;;;;19.00;65.35;99812.00;4998483;28;20027;-83
2021/05/10 03:09:04;;;;;;;5.43;4.25;;;;;;;19.11;64.92;99805.03;5008927;28;20026;-83
2021/05/10 03:11:30;;;;;;;8.80;4.25;;;;;;;19.13;64.74;99795.00;5004066;28;20037;-83
2021/05/10 03:13:56;;;;;;;6.60;3.65;;;;;;;19.13;64.94;99793.19;5015734;28;20033;-83
2021/05/10 03:16:23;;;;;;;3.70;3.30;;;;;;;19.15;64.72;99780.53;5008385;28;20041;-83
2021/05/10 03:18:49;;;;;;;5.55;3.20;;;;;;;18.97;65.39;99777.34;5009655;28;20354;-83
2021/05/10 03:21:16;;;;;;;5.22;3.55;;;;;;;19.08;64.94;99780.09;5000002;28;20022;-83
2021/05/10 03:23:43;;;;;;;4.10;2.88;;;;;;;19.10;65.02;99768.41;5008815;28;20072;-83
2021/05/10 03:26:09;;;;;;;3.92;3.28;;;;;;;19.12;64.89;99771.84;5014190;28;20038;-83
2021/05/10 03:28:35;;;;;;;6.57;3.35;;;;;;;19.11;64.69;99770.13;5014268;28;20393;-83
2021/05/10 03:31:02;;;;;;;4.68;2.72;;;;;;;19.08;64.91;99764.00;5016193;28;20033;-83
2021/05/10 03:33:28;;;;;;;7.80;3.75;;;;;;;19.10;64.82;99753.13;5016110;28;20040;-83
2021/05/10 03:35:55;;;;;;;4.07;1.63;;;;;;;19.04;64.78;99757.16;5016189;28;20089;-83
2021/05/10 03:38:21;;;;;;;7.20;3.00;;;;;;;19.01;65.04;99760.03;5015116;28;20113;-83
2021/05/10 03:40:48;;;;;;;4.97;3.17;;;;;;;19.02;64.68;99756.38;5015569;28;20030;-84
2021/05/10 03:43:14;;;;;;;8.13;4.63;;;;;;;19.03;64.65;99741.16;5013582;28;20029;-83
2021/05/10 03:45:40;;;;;;;6.35;4.50;;;;;;;18.96;64.81;99748.78;5014905;28;20038;-83
2021/05/10 03:48:07;;;;;;;8.98;3.88;;;;;;;18.92;65.05;99749.97;5015350;28;20026;-83
2021/05/10 03:50:33;;;;;;;5.75;3.67;;;;;;;18.87;64.88;99757.47;5014553;28;20034;-83
2021/05/10 03:53:00;;;;;;;6.32;3.15;;;;;;;18.84;64.59;99760.38;5014937;28;20110;-83
2021/05/10 03:55:26;;;;;;;6.38;3.65;;;;;;;18.84;64.45;99755.00;5014968;28;20022;-84
2021/05/10 03:57:53;;;;;;;3.53;3.22;;;;;;;18.87;64.33;99757.47;5015183;28;20034;-84
2021/05/10 04:00:20;;;;;;;7.85;4.38;;;;;;;18.81;64.35;99757.91;5015101;28;20124;-84
2021/05/10 04:02:47;;;;;;;4.13;2.42;;;;;;;18.75;64.29;99761.88;5012075;28;20041;-84
2021/05/10 04:05:47;;;;;;;4.00;2.40;;;;;;;18.65;64.08;99750.09;5014186;28;20080;-83
2021/05/10 04:08:42;;;;;;;3.20;1.83;;;;;;;18.65;63.07;99761.69;5012106;28;20375;-84
2021/05/10 04:11:07;;;;;;;1.75;1.33;;;;;;;18.66;62.83;99782.19;4999295;28;20380;-84
2021/05/10 04:13:36;;;;;;;2.38;1.45;;;;;;;18.70;60.90;99785.50;5014542;28;20525;-83
2021/05/10 04:16:03;;;;;;;0.60;0.60;;;;;;;18.93;60.99;99789.28;5009518;28;20033;-84
2021/05/10 04:18:29;;;;;;;2.85;0.82;;;;;;;18.96;59.92;99786.34;5012899;28;20439;-83
2021/05/10 04:20:56;;;;;;;1.83;1.40;;;;;;;18.96;59.65;99789.03;5010769;28;20467;-83
2021/05/10 04:23:24;;;;;;;3.30;0.75;;;;;;;19.17;59.13;99815.31;5014195;28;20084;-83
2021/05/10 04:25:54;;;;;;;1.52;0.70;;;;;;;19.10;59.34;99814.03;5010006;28;20030;-82
2021/05/10 04:28:22;;;;;;;1.08;0.85;;;;;;;19.37;58.65;99827.28;5011096;28;20609;-83
2021/05/10 04:30:49;;;;;;;1.45;1.08;;;;;;;19.14;58.58;99842.38;5013914;28;20196;-84
2021/05/10 04:33:16;;;;;;;1.25;0.60;;;;;;;19.25;58.95;99842.44;5008145;28;20465;-83
2021/05/10 04:35:42;;;;;;;1.52;0.85;;;;;;;19.37;58.94;99863.06;5007590;28;20120;-83
2021/05/10 04:38:12;;;;;;;1.05;0.65;;;;;;;19.25;59.85;99872.00;5012386;28;20113;-83
2021/05/10 04:40:39;;;;;;;5.10;0.98;;;;;;;19.15;61.68;99860.22;5008952;28;20041;-83
2021/05/10 04:43:06;;;;;;;5.55;1.30;;;;;;;19.00;63.67;99887.16;5014362;28;20088;-82
2021/05/10 04:45:33;;;;;;;7.30;1.33;;;;;;;18.74;65.51;99902.38;5014085;28;20128;-82
2021/05/10 04:47:59;;;;;;;3.25;2.25;;;;;;;18.59;65.80;99907.84;5006309;28;20453;-82
2021/05/10 04:50:25;;;;;;;5.80;1.67;;;;;;;18.52;66.83;99903.03;5011807;28;20096;-82
2021/05/10 04:52:52;;;;;;;2.72;1.95;;;;;;;18.69;66.10;99907.22;5013672;28;20041;-82
2021/05/10 04:55:18;;;;;;;2.42;1.27;;;;;;;18.17;67.22;99895.53;5014328;28;20124;-83
2021/05/10 04:57:45;;;;;;;3.63;1.58;;;;;;;18.24;67.58;99886.09;5004809;28;20085;-83
2021/05/10 05:00:13;;;;;;;1.10;1.00;;;;;;;18.47;67.08;99878.31;5009658;28;20117;-82
2021/05/10 05:02:47;;;;;;;1.60;1.40;;;;;;;18.43;67.26;99845.50;5013982;28;20022;-82
2021/05/10 05:05:14;;;;;;;2.92;2.40;;;;;;;18.42;66.99;99876.81;5003063;28;20040;-82
2021/05/10 05:07:40;;;;;;;3.92;1.45;;;;;;;18.31;67.36;99884.72;5006343;28;20030;-83
2021/05/10 05:10:08;;;;;;;2.70;1.58;;;;;;;18.30;68.05;99864.25;5013290;28;20026;-84
2021/05/10 05:12:37;;;;;;;1.25;1.15;;;;;;;18.35;67.83;99880.03;5015446;28;20455;-84
2021/05/10 05:15:06;;;;;;;2.38;1.63;;;;;;;18.40;67.80;99897.50;5015011;28;20053;-84
2021/05/10 05:17:33;;;;;;;3.03;2.28;;;;;;;18.34;68.14;99938.16;5012086;28;20072;-83
2021/05/10 05:19:59;;;;;;;1.35;1.25;;;;;;;18.11;69.48;99950.41;5011949;28;20565;-83
2021/05/10 05:22:25;;;;;;;6.97;1.73;;;;;;;18.31;68.57;99978.59;5008160;28;20042;-83
2021/05/10 05:24:55;;;;;;;1.92;1.38;;;;;;;18.23;68.70;99986.25;5009128;28;20037;-83
2021/05/10 05:27:23;;;;;;;3.65;1.85;;;;;;;18.15;68.70;100000.19;4995695;28;20021;-83
2021/05/10 05:29:49;;;;;;;3.35;1.38;;;;;;;17.91;69.33;100016.00;5012957;28;20033;-83
2021/05/10 05:32:15;;;;;;;2.28;1.60;;;;;;;17.84;69.67;100042.31;4995797;28;20521;-85
2021/05/10 05:34:41;;;;;;;2.20;2.00;;;;;;;17.49;70.76;100049.91;5005895;28;20034;-84
2021/05/10 05:37:08;;;;;;;2.13;1.55;;;;;;;17.73;70.11;100060.88;5012835;28;20049;-84
2021/05/10 05:39:34;;;;;;;1.05;1.00;;;;;;;17.84;69.97;100060.22;5012414;28;20038;-84
2021/05/10 05:42:00;;;;;;;1.65;1.45;;;;;;;17.67;70.38;100078.22;5010110;28;20026;-84
2021/05/10 05:44:26;;;;;;;6.57;2.05;;;;;;;17.29;71.44;100086.78;5012949;28;20026;-84
2021/05/10 05:47:00;;;;;;;2.42;1.25;;;;;;;17.51;71.17;100107.75;5011706;28;20041;-84
2021/05/10 05:49:26;;;;;;;2.33;1.85;;;;;;;17.60;70.95;100096.47;5012839;28;20161;-84
2021/05/10 05:51:52;;;;;;;4.05;2.05;;;;;;;17.75;70.90;100094.66;4995740;28;20036;-85
2021/05/10 05:54:19;;;;;;;4.47;2.78;;;;;;;17.78;70.57;100094.50;5013879;28;20390;-86
2021/05/10 05:56:45;;;;;;;8.75;2.72;;;;;;;17.84;70.19;100081.66;5009301;28;20040;-85
2021/05/10 05:59:11;;;;;;;2.72;2.25;;;;;;;17.86;70.35;100103.88;5013639;28;20196;-86
2021/05/10 06:01:37;;;;;;;3.03;2.13;;;;;;;17.65;70.83;100103.38;5010537;28;20050;-86
2021/05/10 06:04:04;;;;;;;4.20;2.67;;;;;;;17.99;69.92;100107.53;5010301;28;20395;-82
2021/05/10 06:06:31;;;;;;;4.00;1.88;;;;;;;17.83;70.38;100138.88;5011441;28;20030;-90
2021/05/10 06:08:58;;;;;;;2.25;1.23;;;;;;;17.69;70.22;100153.97;5011581;28;20036;-85
2021/05/10 06:11:24;;;;;;;1.85;1.20;;;;;;;17.68;69.84;100138.84;5008158;28;20029;-85
2021/05/10 06:13:50;;;;;;;1.52;1.20;;;;;;;17.71;69.66;100137.84;5009823;28;20026;-85
2021/05/10 06:16:17;;;;;;;1.00;0.50;;;;;;;17.58;70.12;100135.03;5009169;28;20049;-85
2021/05/10 06:18:44;;;;;;;0.90;0.50;;;;;;;17.65;69.08;100136.38;5009197;28;20057;-84
2021/05/10 06:21:10;;;;;;;1.70;1.05;;;;;;;17.56;68.88;100135.13;5011243;28;20401;-86
2021/05/10 06:23:39;;;;;;;0.28;0.28;;;;;;;17.77;68.79;100141.00;5011665;28;20034;-86
2021/05/10 06:26:07;;;;;;;0.82;0.77;;;;;;;17.70;69.26;100139.63;5011449;28;20061;-85
2021/05/10 06:28:33;;;;;;;0.82;0.82;;;;;;;18.00;68.14;100140.56;5012656;28;20026;-85
2021/05/10 06:31:00;;;;;;;1.95;1.10;;;;;;;18.11;68.02;100148.78;5005803;28;20041;-86
2021/05/10 06:33:26;;;;;;;0.77;0.68;;;;;;;17.94;67.96;100137.31;5009340;28;20029;-86
2021/05/10 06:35:52;;;;;;;0.85;0.65;;;;;;;18.27;67.62;100146.84;5012844;28;20068;-85
2021/05/10 06:38:19;;;;;;;0.43;0.43;;;;;;;18.38;67.16;100143.50;5012622;28;20034;-86
2021/05/10 06:40:45;;;;;;;1.85;0.90;;;;;;;18.63;67.42;100155.34;5012935;28;20053;-85
2021/05/10 06:43:12;;;;;;;0.60;0.60;;;;;;;18.47;66.87;100143.84;5012793;28;20429;-87
2021/05/10 06:45:38;;;;;;;1.48;0.77;;;;;;;18.75;66.48;100162.59;5012812;28;20084;-88
2021/05/10 06:48:04;;;;;;;1.75;1.02;;;;;;;18.64;66.27;100164.22;4993074;28;20034;-85
2021/05/10 06:50:30;;;;;;;1.05;0.98;;;;;;;18.59;66.03;100169.88;5011888;28;20469;-88
2021/05/10 06:52:57;;;;;;;1.38;0.95;;;;;;;18.57;65.98;100155.72;5011763;28;20026;-86
2021/05/10 06:55:23;;;;;;;1.60;1.10;;;;;;;18.43;66.26;100160.16;5011357;28;20049;-86
2021/05/10 06:57:49;;;;;;;1.58;1.00;;;;;;;18.49;66.38;100164.28;5009581;28;20072;-86
2021/05/10 07:00:16;;;;;;;3.28;1.58;;;;;;;18.35;66.32;100156.25;5007127;28;20080;-85
2021/05/10 07:02:42;;;;;;;1.90;1.38;;;;;;;18.38;66.76;100174.81;5003032;28;20469;-86
2021/05/10 07:05:09;;;;;;;1.58;1.17;;;;;;;18.32;66.74;100168.03;5011913;28;20057;-84
2021/05/10 07:07:35;;;;;;;1.63;1.45;;;;;;;18.31;67.07;100170.81;5010964;28;20026;-82
2021/05/10 07:10:02;;;;;;;0.10;0.10;;;;;;;18.13;67.84;100179.06;5008964;28;20033;-79
2021/05/10 07:12:28;;;;;;;4.60;2.80;;;;;;;18.33;67.20;100172.44;5011839;28;20080;-86
2021/05/10 07:14:55;;;;;;;4.35;2.55;;;;;;;18.17;68.16;100180.59;5012234;28;20025;-86
2021/05/10 07:17:21;;;;;;;4.57;2.17;;;;;;;18.21;67.93;100184.78;5007554;28;20113;-87
2021/05/10 07:19:47;;;;;;;4.25;2.42;;;;;;;18.32;67.79;100189.47;5010562;28;20026;-84
2021/05/10 07:22:13;;;;;;;3.33;2.58;;;;;;;18.16;68.28;100196.78;5001309;28;20053;-80
2021/05/10 07:24:39;;;;;;;6.60;2.38;;;;;;;18.19;67.90;100210.81;5011010;28;20065;-85
2021/05/10 07:27:05;;;;;;;4.57;2.30;;;;;;;18.07;68.15;100233.91;5006972;28;20018;-85
2021/05/10 07:29:34;;;;;;;6.07;3.00;;;;;;;17.64;69.87;100247.16;5013884;28;20058;-86
2021/05/10 07:32:00;;;;;;;5.78;1.70;;;;;;;17.28;70.26;100277.81;5003244;28;20109;-87
2021/05/10 07:34:27;;;;;;;1.02;0.60;;;;;;;17.16;69.70;100273.16;5003281;28;20041;-88
2021/05/10 07:36:53;;;;;;;2.53;1.00;;;;;;;17.32;68.80;100284.75;5010609;28;20030;-89
2021/05/10 07:39:19;;;;;;;0.68;0.65;;;;;;;17.03;68.68;100299.75;5013120;28;20030;-88
2021/05/10 07:41:45;;;;;;;0.70;0.70;;;;;;;16.98;68.61;100318.75;5014154;28;20045;-88
2021/05/10 07:44:13;;;;;;;2.53;1.20;;;;;;;17.05;67.14;100320.13;5014214;28;20033;-88
2021/05/10 07:46:39;;;;;;;0.75;0.70;;;;;;;17.19;66.55;100321.19;5009681;28;20037;-86
2021/05/10 07:49:05;;;;;;;1.55;0.73;;;;;;;16.97;66.77;100322.34;5015285;28;20026;-86
2021/05/10 07:51:31;;;;;;;0.80;0.65;;;;;;;17.14;66.74;100332.13;5001416;28;20057;-89
2021/05/10 07:54:00;;;;;;;0.85;0.85;;;;;;;17.00;67.30;100340.94;5011866;28;20030;-83
2021/05/10 07:56:27;;;;;;;0.40;0.40;;;;;;;16.66;67.88;100343.59;5013586;28;20124;-91
2021/05/10 07:58:55;;;;;;;0.65;0.60;;;;;;;16.84;67.42;100342.69;4982518;28;20030;-76
2021/05/10 08:01:22;;;;;;;2.95;0.85;;;;;;;16.81;67.50;100339.22;5002009;28;20077;-91
2021/05/10 08:03:48;;;;;;;3.08;0.65;;;;;;;16.89;68.05;100335.28;5007018;28;20049;-90
2021/05/10 08:06:16;;;;;;;0.80;0.80;;;;;;;17.19;66.75;100338.09;5012985;28;20025;-90
2021/05/10 08:08:42;;;;;;;6.20;1.00;;;;;;;17.42;66.76;100349.31;5013169;28;20022;-87
2021/05/10 08:11:08;;;;;;;1.02;0.90;;;;;;;17.26;67.17;100360.06;5013242;28;20044;-88
2021/05/10 08:13:34;;;;;;;3.60;0.77;;;;;;;17.41;65.99;100361.84;5013029;28;20065;-87
2021/05/10 08:16:01;;;;;;;0.63;0.52;;;;;;;17.50;66.19;100378.38;5002250;28;20474;-86
2021/05/10 08:18:27;;;;;;;2.42;0.98;;;;;;;17.32;66.51;100382.94;4995344;28;20506;-86
2021/05/10 08:20:57;;;;;;;5.63;0.93;;;;;;;17.46;65.85;100388.38;4997896;28;20382;-82
2021/05/10 08:23:23;;;;;;;1.00;0.57;;;;;;;17.62;65.89;100372.31;5000352;28;20073;-86
2021/05/10 08:25:50;;;;;;;0.68;0.55;;;;;;;17.51;65.83;100374.72;4999565;28;20089;-88
2021/05/10 08:28:17;;;;;;;1.23;0.60;;;;;;;17.38;65.77;100383.44;4996711;28;20840;-87
2021/05/10 08:30:45;;;;;;;0.47;0.35;;;;;;;17.19;65.95;100382.75;4996161;28;20030;-85
2021/05/10 08:33:11;;;;;;;0.35;0.35;;;;;;;17.23;64.96;100389.66;4999099;28;20026;-88
2021/05/10 08:35:37;;;;;;;1.33;0.77;;;;;;;17.15;65.52;100384.72;4980118;28;20035;-87
2021/05/10 08:38:04;;;;;;;0.43;0.30;;;;;;;17.04;64.71;100396.00;4988087;28;20088;-85
2021/05/10 08:40:31;;;;;;;1.67;0.50;;;;;;;17.09;63.88;100388.59;4998094;28;20022;-89
2021/05/10 08:42:58;;;;;;;0.30;0.30;;;;;;;17.51;63.08;100396.13;5001619;28;20019;-87
2021/05/10 08:45:25;;;;;;;2.05;0.35;;;;;;;17.44;63.07;100407.19;4982464;28;20107;-89
2021/05/10 08:47:52;;;;;;;3.92;0.60;;;;;;;17.45;63.14;100419.66;5003742;28;20034;-89
2021/05/10 08:50:18;;;;;;;2.75;1.33;;;;;;;17.27;63.70;100431.38;5008680;28;20022;-89
2021/05/10 08:52:44;;;;;;;1.55;1.45;;;;;;;17.40;63.21;100429.75;5010055;28;20077;-89
2021/05/10 08:55:18;;;;;;;0.25;0.20;;;;;;;17.71;62.93;100440.59;5011952;28;20029;-88
2021/05/10 08:57:45;;;;;;;1.65;0.68;;;;;;;17.57;63.53;100442.22;5008771;28;20021;-87
2021/05/10 09:00:14;;;;;;;1.65;0.82;;;;;;;17.30;63.48;100436.56;5009998;28;20030;-88
2021/05/10 09:02:40;;;;;;;3.78;1.08;;;;;;;17.42;62.22;100432.34;5004886;28;20512;-89
2021/05/10 09:05:16;;;;;;;1.05;0.52;;;;;;;17.57;61.24;100438.66;5007271;28;20033;-89
2021/05/10 09:07:45;;;;;;;1.88;0.20;;;;;;;17.56;59.92;100453.03;5001878;28;20033;-87
2021/05/10 09:10:13;;;;;;;0.50;0.50;;;;;;;17.60;60.04;100449.22;5001447;28;20173;-84
2021/05/10 09:18:09;;;;;;;4.43;0.95;;;;;;;17.96;58.92;100466.88;5092765;27;20352;-83
2021/05/10 09:20:38;;;;;;;0.10;0.10;;;;;;;17.95;57.85;100475.88;5088017;28;20093;-86
2021/05/10 09:25:55;;;;;;;0.10;0.10;;;;;;;17.74;57.23;100478.75;5054816;28;20942;-89
2021/05/10 09:28:24;;;;;;;0.10;0.10;;;;;;;17.90;57.54;100483.28;5048692;28;20033;-90
2021/05/10 09:30:53;;;;;;;0.22;0.22;;;;;;;17.68;57.13;100488.97;5049977;28;20040;-86
2021/05/10 09:33:24;;;;;;;0.10;0.10;;;;;;;17.27;56.73;100498.31;5044174;28;20032;-86
2021/05/10 09:35:52;;;;;;;0.80;0.80;;;;;;;17.60;56.67;100497.44;5051373;28;20040;-84
2021/05/10 09:38:21;;;;;;;0.20;0.20;;;;;;;17.64;56.44;100515.06;5046696;28;20079;-86
2021/05/10 09:40:50;;;;;;;0.10;0.10;;;;;;;17.61;56.63;100528.63;5050471;28;20022;-88
2021/05/10 09:43:19;;;;;;;1.27;0.63;;;;;;;17.48;57.22;100531.09;5055461;28;20089;-89
2021/05/10 09:45:49;;;;;;;0.20;0.20;;;;;;;17.54;56.95;100524.56;5050712;28;20029;-86
2021/05/10 09:48:22;;;;;;;0.10;0.10;;;;;;;17.71;57.05;100524.50;5052048;28;20108;-85
2021/05/10 09:50:52;;;;;;;1.75;0.40;;;;;;;17.57;56.55;100540.44;5049398;28;20025;-86
2021/05/10 09:53:29;;;;;;;0.28;0.28;;;;;;;17.63;56.24;100553.50;5048340;28;20515;-86
2021/05/10 09:55:56;;;;;;;0.13;0.13;;;;;;;17.60;56.90;100541.16;5053244;28;20037;-86
2021/05/10 09:58:25;;;;;;;0.95;0.95;;;;;;;17.82;57.16;100544.47;5051281;28;20028;-86
2021/05/10 10:00:58;;;;;;;1.50;0.55;;;;;;;17.79;57.29;100557.09;5047763;28;20030;-86
2021/05/10 10:03:36;;;;;;;0.35;0.35;;;;;;;17.76;57.85;100557.25;5049879;28;20029;-86
2021/05/10 10:06:06;;;;;;;0.47;0.47;;;;;;;17.71;58.90;100559.31;5048177;28;20029;-85
2021/05/10 10:08:33;;;;;;;0.63;0.52;;;;;;;17.78;58.31;100575.91;5048342;28;20481;-85
2021/05/10 10:11:00;;;;;;;0.90;0.70;;;;;;;17.79;59.43;100572.31;5048007;28;20065;-86
2021/05/10 10:13:27;;;;;;;0.73;0.73;;;;;;;17.92;58.38;100577.88;5049919;28;20037;-87
2021/05/10 10:15:56;;;;;;;1.80;0.50;;;;;;;18.06;58.48;100575.31;5049004;28;20033;-84
2021/05/10 10:18:24;;;;;;;1.63;1.08;;;;;;;18.07;58.96;100582.41;5050219;28;20018;-86
2021/05/10 10:20:52;;;;;;;0.50;0.50;;;;;;;18.23;58.80;100581.53;5047704;28;20037;-86
2021/05/10 10:23:22;;;;;;;1.33;0.50;;;;;;;18.01;59.89;100593.47;5048363;28;20044;-83
2021/05/10 10:25:50;;;;;;;1.17;1.10;;;;;;;18.13;60.00;100594.63;5051156;28;20068;-84
2021/05/10 10:28:19;;;;;;;0.57;0.45;;;;;;;18.13;62.20;100585.69;5046585;28;20025;-84
2021/05/10 10:30:50;;;;;;;2.10;0.77;;;;;;;18.12;62.00;100598.25;5048479;28;20069;-85
2021/05/10 10:33:26;;;;;;;5.75;3.45;;;;;;;18.06;62.63;100580.66;5048619;28;20080;-85
2021/05/10 10:35:53;;;;;;;8.38;5.50;;;;;;;18.09;63.48;100569.78;5041496;28;20029;-86
2021/05/10 10:38:35;;;;;;;9.60;4.50;;;;;;;18.32;64.00;100574.78;5037494;28;20388;-86
2021/05/10 10:44:36;;;;;;;1.45;1.35;;;;;;;18.80;64.55;100580.09;5069233;27;20402;-86
2021/05/10 10:47:05;;;;;;;6.45;2.50;;;;;;;19.01;62.85;100581.53;5040609;28;20037;-86
2021/05/10 10:49:35;;;;;;;1.98;1.70;;;;;;;18.87;61.80;100586.84;5035099;28;20104;-81
2021/05/10 10:52:02;;;;;;;4.45;2.13;;;;;;;19.35;62.42;100600.13;5035580;28;20400;-82
2021/05/10 10:54:30;;;;;;;9.27;3.00;;;;;;;19.66;62.13;100593.72;5034062;28;20034;-85
2021/05/10 10:57:00;;;;;;;6.90;4.82;;;;;;;19.73;61.17;100596.91;5038320;28;20127;-83
2021/05/10 11:05:16;;;;;;;6.35;4.10;;;;;;;20.32;58.20;100575.22;5119050;27;20717;-84
2021/05/10 11:08:09;;;;;;;6.50;3.58;;;;;;;20.50;57.69;100591.16;5083093;28;20028;-85
2021/05/10 11:13:37;;;;;;;5.60;3.22;;;;;;;20.46;56.69;100609.34;5168010;27;20356;-84
2021/05/10 11:16:43;;;;;;;5.55;2.88;;;;;;;20.88;55.60;100606.59;5145885;27;20412;-84
2021/05/10 11:19:38;;;;;;;4.18;3.00;;;;;;;20.90;54.08;100615.44;5157036;27;20041;-86
2021/05/10 11:22:38;;;;;;;6.28;2.90;;;;;;;20.94;52.33;100616.97;5139300;27;20031;-85
2021/05/10 11:25:35;;;;;;;5.45;3.10;;;;;;;20.73;51.67;100630.03;5151412;27;20414;-86
2021/05/10 11:31:11;;;;;;;5.57;2.92;;;;;;;20.51;51.99;100635.91;5065040;27;20420;-83
2021/05/10 11:36:34;;;;;;;8.00;3.08;;;;;;;20.53;51.36;100640.25;5060851;28;20829;-83
2021/05/10 11:39:04;;;;;;;6.53;2.22;;;;;;;20.60;51.22;100646.09;5046835;28;20123;-83
2021/05/10 11:41:41;;;;;;;6.32;2.28;;;;;;;20.48;51.27;100633.44;5049856;28;20486;-82
2021/05/10 11:44:08;;;;;;;5.78;2.65;;;;;;;20.90;51.18;100638.81;5041194;28;20100;-82
2021/05/10 11:46:47;;;;;;;8.10;2.80;;;;;;;20.98;48.83;100628.41;5047943;28;20546;-81
2021/05/10 11:55:00;;;;;;;10.50;2.85;;;;;;;20.96;49.15;100641.09;5071251;28;20404;-82
2021/05/10 11:57:30;;;;;;;8.52;3.15;;;;;;;20.86;48.98;100654.34;5051551;28;20029;-82
2021/05/10 12:00:00;;;;;;;5.78;2.33;;;;;;;20.88;49.55;100649.69;5049867;28;20814;-82
2021/05/10 12:02:30;;;;;;;0.88;0.82;;;;;;;20.72;47.77;100651.69;5054451;28;20033;-83
2021/05/10 12:07:42;;;;;;;0.40;0.40;;;;;;;20.56;46.47;100676.00;5084639;27;20402;-82
2021/05/10 12:10:10;;;;;;;0.75;0.60;;;;;;;20.26;46.04;100677.00;5065158;28;20033;-82
2021/05/10 12:12:52;;;;;;;1.73;1.35;;;;;;;20.36;47.37;100679.03;5069853;28;20033;-87